sensor_id;sensor_type;location;lat;lon;timestamp;pressure;altitude;pressure_sealevel;temperature;humidity
70690;BME280;58267;51.156;17.044;2023-11-22T00:00:44;100847.26;;;4.53;43.31
70690;BME280;58267;51.156;17.044;2023-11-22T00:03:10;100846.76;;;3.64;44.57
70690;BME280;58267;51.156;17.044;2023-11-22T00:05:36;100850.26;;;3.52;44.53
70690;BME280;58267;51.156;17.044;2023-11-22T00:08:03;100848.73;;;3.62;44.59
70690;BME280;58267;51.156;17.044;2023-11-22T00:10:28;100851.98;;;3.81;44.73
70690;BME280;58267;51.156;17.044;2023-11-22T00:12:53;100851.30;;;3.78;44.33
70690;BME280;58267;51.156;17.044;2023-11-22T00:15:19;100851.78;;;3.17;45.21
70690;BME280;58267;51.156;17.044;2023-11-22T00:17:44;100853.73;;;3.59;45.13
70690;BME280;58267;51.156;17.044;2023-11-22T00:20:11;100863.86;;;2.69;45.61
70690;BME280;58267;51.156;17.044;2023-11-22T00:22:47;100870.07;;;3.41;45.09
70690;BME280;58267;51.156;17.044;2023-11-22T00:25:11;100872.49;;;3.30;45.00
70690;BME280;58267;51.156;17.044;2023-11-22T00:27:26;100865.61;;;3.60;44.71
70690;BME280;58267;51.156;17.044;2023-11-22T00:29:52;100872.66;;;2.46;46.12
70690;BME280;58267;51.156;17.044;2023-11-22T00:32:22;100880.49;;;2.92;46.62
70690;BME280;58267;51.156;17.044;2023-11-22T00:34:47;100887.96;;;3.09;45.37
70690;BME280;58267;51.156;17.044;2023-11-22T00:37:13;100896.42;;;3.31;45.43
70690;BME280;58267;51.156;17.044;2023-11-22T00:41:58;100909.35;;;2.41;45.80
70690;BME280;58267;51.156;17.044;2023-11-22T00:44:23;100914.72;;;2.64;46.25
70690;BME280;58267;51.156;17.044;2023-11-22T00:46:48;100919.29;;;2.47;46.86
70690;BME280;58267;51.156;17.044;2023-11-22T00:49:13;100918.95;;;2.97;46.02
70690;BME280;58267;51.156;17.044;2023-11-22T00:51:39;100918.95;;;2.42;46.07
70690;BME280;58267;51.156;17.044;2023-11-22T00:54:05;100916.03;;;2.55;46.50
70690;BME280;58267;51.156;17.044;2023-11-22T00:56:32;100915.76;;;2.49;46.31
70690;BME280;58267;51.156;17.044;2023-11-22T00:58:58;100914.87;;;2.49;46.56
70690;BME280;58267;51.156;17.044;2023-11-22T01:01:24;100915.95;;;1.98;46.91
70690;BME280;58267;51.156;17.044;2023-11-22T01:03:49;100918.85;;;2.79;45.70
70690;BME280;58267;51.156;17.044;2023-11-22T01:06:14;100916.59;;;3.10;45.63
70690;BME280;58267;51.156;17.044;2023-11-22T01:08:40;100913.32;;;2.99;46.05
70690;BME280;58267;51.156;17.044;2023-11-22T01:11:06;100912.35;;;2.41;46.08
70690;BME280;58267;51.156;17.044;2023-11-22T01:13:31;100913.37;;;2.24;46.97
70690;BME280;58267;51.156;17.044;2023-11-22T01:15:56;100924.18;;;2.46;46.69
70690;BME280;58267;51.156;17.044;2023-11-22T01:18:21;100922.40;;;2.03;46.42
70690;BME280;58267;51.156;17.044;2023-11-22T01:20:47;100918.70;;;2.94;45.65
70690;BME280;58267;51.156;17.044;2023-11-22T01:23:13;100919.90;;;3.23;44.83
70690;BME280;58267;51.156;17.044;2023-11-22T01:25:39;100925.59;;;3.27;44.04
70690;BME280;58267;51.156;17.044;2023-11-22T01:28:04;100929.24;;;3.00;44.45
70690;BME280;58267;51.156;17.044;2023-11-22T01:30:35;100930.39;;;3.14;44.20
70690;BME280;58267;51.156;17.044;2023-11-22T01:32:55;100935.87;;;3.10;43.80
70690;BME280;58267;51.156;17.044;2023-11-22T01:35:21;100939.18;;;1.82;46.24
70690;BME280;58267;51.156;17.044;2023-11-22T01:37:46;100929.34;;;2.72;45.28
70690;BME280;58267;51.156;17.044;2023-11-22T01:40:12;100929.76;;;2.85;44.83
70690;BME280;58267;51.156;17.044;2023-11-22T01:42:42;100934.76;;;3.22;43.52
70690;BME280;58267;51.156;17.044;2023-11-22T01:45:03;100936.55;;;2.99;43.32
70690;BME280;58267;51.156;17.044;2023-11-22T01:47:29;100935.36;;;3.18;43.06
70690;BME280;58267;51.156;17.044;2023-11-22T01:49:53;100935.66;;;3.11;43.23
70690;BME280;58267;51.156;17.044;2023-11-22T01:52:19;100938.86;;;2.76;43.71
70690;BME280;58267;51.156;17.044;2023-11-22T01:54:44;100943.24;;;2.05;43.68
70690;BME280;58267;51.156;17.044;2023-11-22T01:57:10;100948.56;;;2.36;44.70
70690;BME280;58267;51.156;17.044;2023-11-22T01:59:35;100949.57;;;2.44;44.39
70690;BME280;58267;51.156;17.044;2023-11-22T02:02:01;100948.28;;;3.06;44.01
70690;BME280;58267;51.156;17.044;2023-11-22T02:04:27;100950.60;;;2.85;43.68
70690;BME280;58267;51.156;17.044;2023-11-22T02:06:52;100957.80;;;2.61;44.02
70690;BME280;58267;51.156;17.044;2023-11-22T02:09:18;100960.25;;;3.48;43.27
70690;BME280;58267;51.156;17.044;2023-11-22T02:11:43;100969.39;;;3.77;42.90
70690;BME280;58267;51.156;17.044;2023-11-22T02:14:09;100970.12;;;3.60;42.31
70690;BME280;58267;51.156;17.044;2023-11-22T02:16:37;100970.99;;;3.59;42.43
70690;BME280;58267;51.156;17.044;2023-11-22T02:19:01;100974.90;;;3.50;41.77
70690;BME280;58267;51.156;17.044;2023-11-22T02:21:27;100976.64;;;3.60;41.77
70690;BME280;58267;51.156;17.044;2023-11-22T02:23:51;100981.56;;;3.69;42.18
70690;BME280;58267;51.156;17.044;2023-11-22T02:26:17;100985.09;;;3.91;41.23
70690;BME280;58267;51.156;17.044;2023-11-22T02:28:43;100989.62;;;3.79;41.51
70690;BME280;58267;51.156;17.044;2023-11-22T02:31:07;100996.97;;;3.87;41.65
70690;BME280;58267;51.156;17.044;2023-11-22T02:33:33;101001.50;;;3.93;41.84
70690;BME280;58267;51.156;17.044;2023-11-22T02:35:58;101003.30;;;3.81;41.89
70690;BME280;58267;51.156;17.044;2023-11-22T02:38:24;101003.41;;;4.07;40.61
70690;BME280;58267;51.156;17.044;2023-11-22T02:40:49;101004.29;;;3.92;41.03
70690;BME280;58267;51.156;17.044;2023-11-22T02:43:15;101007.35;;;3.79;40.99
70690;BME280;58267;51.156;17.044;2023-11-22T02:45:42;101009.82;;;4.09;41.23
70690;BME280;58267;51.156;17.044;2023-11-22T02:48:13;101014.54;;;3.72;41.47
70690;BME280;58267;51.156;17.044;2023-11-22T02:50:32;101019.33;;;2.79;41.77
70690;BME280;58267;51.156;17.044;2023-11-22T02:52:58;101023.46;;;3.44;42.15
70690;BME280;58267;51.156;17.044;2023-11-22T02:55:23;101027.23;;;3.83;41.62
70690;BME280;58267;51.156;17.044;2023-11-22T02:57:49;101034.46;;;3.59;41.20
70690;BME280;58267;51.156;17.044;2023-11-22T03:00:15;101037.54;;;3.16;41.41
70690;BME280;58267;51.156;17.044;2023-11-22T03:02:40;101039.56;;;3.10;41.90
70690;BME280;58267;51.156;17.044;2023-11-22T03:05:07;101043.27;;;3.07;41.98
70690;BME280;58267;51.156;17.044;2023-11-22T03:07:31;101051.97;;;3.49;41.88
70690;BME280;58267;51.156;17.044;2023-11-22T03:09:57;101054.06;;;3.57;42.08
70690;BME280;58267;51.156;17.044;2023-11-22T03:12:22;101065.87;;;1.44;45.69
70690;BME280;58267;51.156;17.044;2023-11-22T03:14:48;101072.01;;;2.61;44.46
70690;BME280;58267;51.156;17.044;2023-11-22T03:17:15;101073.28;;;2.73;44.11
70690;BME280;58267;51.156;17.044;2023-11-22T03:19:40;101078.16;;;2.02;44.75
70690;BME280;58267;51.156;17.044;2023-11-22T03:22:06;101082.26;;;1.78;45.58
70690;BME280;58267;51.156;17.044;2023-11-22T03:24:31;101084.41;;;1.01;46.75
70690;BME280;58267;51.156;17.044;2023-11-22T03:26:56;101092.43;;;1.13;47.47
70690;BME280;58267;51.156;17.044;2023-11-22T03:29:21;101101.33;;;1.92;45.54
70690;BME280;58267;51.156;17.044;2023-11-22T03:31:46;101108.53;;;2.06;44.55
70690;BME280;58267;51.156;17.044;2023-11-22T03:34:12;101109.46;;;1.55;45.29
70690;BME280;58267;51.156;17.044;2023-11-22T03:36:38;101111.41;;;0.79;46.21
70690;BME280;58267;51.156;17.044;2023-11-22T03:39:02;101111.94;;;1.65;45.80
70690;BME280;58267;51.156;17.044;2023-11-22T03:41:27;101113.81;;;0.72;46.93
70690;BME280;58267;51.156;17.044;2023-11-22T03:43:52;101116.20;;;0.13;48.46
70690;BME280;58267;51.156;17.044;2023-11-22T03:46:18;101120.53;;;1.13;47.56
70690;BME280;58267;51.156;17.044;2023-11-22T03:48:44;101126.78;;;2.09;45.18
70690;BME280;58267;51.156;17.044;2023-11-22T03:51:10;101127.46;;;1.81;45.01
70690;BME280;58267;51.156;17.044;2023-11-22T03:53:36;101129.42;;;2.06;44.40
70690;BME280;58267;51.156;17.044;2023-11-22T03:56:01;101130.43;;;2.19;44.27
70690;BME280;58267;51.156;17.044;2023-11-22T03:58:26;101137.78;;;2.50;44.60
70690;BME280;58267;51.156;17.044;2023-11-22T04:00:52;101140.09;;;2.76;43.88
70690;BME280;58267;51.156;17.044;2023-11-22T04:03:18;101136.15;;;3.03;43.15
70690;BME280;58267;51.156;17.044;2023-11-22T04:05:42;101137.07;;;2.80;42.73
70690;BME280;58267;51.156;17.044;2023-11-22T04:08:08;101138.54;;;2.69;43.50
70690;BME280;58267;51.156;17.044;2023-11-22T04:10:34;101139.96;;;2.69;42.92
70690;BME280;58267;51.156;17.044;2023-11-22T04:12:59;101145.89;;;2.13;43.85
70690;BME280;58267;51.156;17.044;2023-11-22T04:15:25;101151.45;;;1.25;46.15
70690;BME280;58267;51.156;17.044;2023-11-22T04:17:50;101149.54;;;1.99;44.58
70690;BME280;58267;51.156;17.044;2023-11-22T04:20:16;101149.84;;;2.58;43.26
70690;BME280;58267;51.156;17.044;2023-11-22T04:22:42;101150.17;;;2.95;43.03
70690;BME280;58267;51.156;17.044;2023-11-22T04:25:07;101148.58;;;2.82;43.11
70690;BME280;58267;51.156;17.044;2023-11-22T04:29:58;101149.55;;;3.63;42.49
70690;BME280;58267;51.156;17.044;2023-11-22T04:32:23;101152.91;;;3.31;42.22
70690;BME280;58267;51.156;17.044;2023-11-22T04:34:49;101153.30;;;3.38;42.10
70690;BME280;58267;51.156;17.044;2023-11-22T04:37:14;101163.50;;;3.66;41.71
70690;BME280;58267;51.156;17.044;2023-11-22T04:39:39;101171.34;;;2.90;41.73
70690;BME280;58267;51.156;17.044;2023-11-22T04:42:05;101173.88;;;3.26;41.85
70690;BME280;58267;51.156;17.044;2023-11-22T04:44:31;101174.99;;;3.29;42.43
70690;BME280;58267;51.156;17.044;2023-11-22T04:46:56;101180.47;;;3.36;42.06
70690;BME280;58267;51.156;17.044;2023-11-22T04:49:21;101181.39;;;3.53;41.92
70690;BME280;58267;51.156;17.044;2023-11-22T04:51:46;101177.93;;;3.61;41.74
70690;BME280;58267;51.156;17.044;2023-11-22T04:54:12;101176.28;;;3.92;40.91
70690;BME280;58267;51.156;17.044;2023-11-22T04:56:36;101181.12;;;3.93;41.44
70690;BME280;58267;51.156;17.044;2023-11-22T04:59:01;101171.62;;;4.01;40.90
70690;BME280;58267;51.156;17.044;2023-11-22T05:01:31;101170.54;;;3.99;41.19
70690;BME280;58267;51.156;17.044;2023-11-22T05:03:52;101180.99;;;3.95;40.99
70690;BME280;58267;51.156;17.044;2023-11-22T05:06:18;101184.26;;;3.69;40.64
70690;BME280;58267;51.156;17.044;2023-11-22T05:08:43;101188.58;;;3.73;40.54
70690;BME280;58267;51.156;17.044;2023-11-22T05:11:09;101204.54;;;3.57;39.93
70690;BME280;58267;51.156;17.044;2023-11-22T05:13:35;101206.28;;;3.68;39.47
70690;BME280;58267;51.156;17.044;2023-11-22T05:16:00;101209.84;;;3.61;39.95
70690;BME280;58267;51.156;17.044;2023-11-22T05:18:26;101226.96;;;3.50;40.02
70690;BME280;58267;51.156;17.044;2023-11-22T05:20:51;101238.23;;;3.79;39.77
70690;BME280;58267;51.156;17.044;2023-11-22T05:23:17;101244.14;;;3.52;40.10
70690;BME280;58267;51.156;17.044;2023-11-22T05:25:43;101249.20;;;3.79;39.95
70690;BME280;58267;51.156;17.044;2023-11-22T05:28:08;101247.23;;;4.35;39.14
70690;BME280;58267;51.156;17.044;2023-11-22T05:30:34;101247.55;;;3.94;39.23
70690;BME280;58267;51.156;17.044;2023-11-22T05:32:59;101255.36;;;3.73;39.25
70690;BME280;58267;51.156;17.044;2023-11-22T05:35:25;101266.63;;;3.10;39.98
70690;BME280;58267;51.156;17.044;2023-11-22T05:37:50;101273.20;;;3.15;40.43
70690;BME280;58267;51.156;17.044;2023-11-22T05:40:16;101279.33;;;3.46;40.41
70690;BME280;58267;51.156;17.044;2023-11-22T05:42:42;101285.90;;;3.77;40.06
70690;BME280;58267;51.156;17.044;2023-11-22T05:45:13;101288.70;;;3.59;39.58
70690;BME280;58267;51.156;17.044;2023-11-22T05:47:33;101290.56;;;3.34;40.25
70690;BME280;58267;51.156;17.044;2023-11-22T05:49:59;101296.30;;;2.42;41.53
70690;BME280;58267;51.156;17.044;2023-11-22T05:52:24;101299.42;;;3.11;41.27
70690;BME280;58267;51.156;17.044;2023-11-22T05:54:50;101304.67;;;2.78;41.52
70690;BME280;58267;51.156;17.044;2023-11-22T05:57:15;101306.99;;;2.89;41.11
70690;BME280;58267;51.156;17.044;2023-11-22T05:59:40;101315.90;;;3.34;40.75
70690;BME280;58267;51.156;17.044;2023-11-22T06:02:05;101323.64;;;2.54;41.38
70690;BME280;58267;51.156;17.044;2023-11-22T06:04:31;101336.62;;;1.58;43.01
70690;BME280;58267;51.156;17.044;2023-11-22T06:06:57;101331.70;;;1.49;43.98
70690;BME280;58267;51.156;17.044;2023-11-22T06:09:22;101336.15;;;2.17;42.87
70690;BME280;58267;51.156;17.044;2023-11-22T06:11:48;101348.77;;;2.14;42.45
70690;BME280;58267;51.156;17.044;2023-11-22T06:14:13;101354.79;;;0.91;43.55
70690;BME280;58267;51.156;17.044;2023-11-22T06:16:38;101351.93;;;0.65;44.24
70690;BME280;58267;51.156;17.044;2023-11-22T06:19:04;101343.98;;;1.21;43.35
70690;BME280;58267;51.156;17.044;2023-11-22T06:21:29;101336.66;;;2.22;41.95
70690;BME280;58267;51.156;17.044;2023-11-22T06:23:55;101344.72;;;2.65;41.65
70690;BME280;58267;51.156;17.044;2023-11-22T06:26:21;101345.08;;;2.75;41.37
70690;BME280;58267;51.156;17.044;2023-11-22T06:28:46;101341.00;;;3.10;40.49
70690;BME280;58267;51.156;17.044;2023-11-22T06:31:11;101336.44;;;2.76;40.65
70690;BME280;58267;51.156;17.044;2023-11-22T06:33:37;101344.19;;;2.79;41.03
70690;BME280;58267;51.156;17.044;2023-11-22T06:36:03;101347.10;;;2.78;40.40
70690;BME280;58267;51.156;17.044;2023-11-22T06:38:28;101350.23;;;2.95;40.04
70690;BME280;58267;51.156;17.044;2023-11-22T06:40:54;101356.82;;;3.10;40.32
70690;BME280;58267;51.156;17.044;2023-11-22T06:43:19;101354.63;;;3.81;40.27
70690;BME280;58267;51.156;17.044;2023-11-22T06:45:45;101348.25;;;3.35;40.57
70690;BME280;58267;51.156;17.044;2023-11-22T06:48:10;101355.17;;;3.57;40.25
70690;BME280;58267;51.156;17.044;2023-11-22T06:50:36;101358.55;;;3.50;40.06
70690;BME280;58267;51.156;17.044;2023-11-22T06:53:01;101365.73;;;3.55;39.99
70690;BME280;58267;51.156;17.044;2023-11-22T06:55:26;101370.25;;;3.92;39.13
70690;BME280;58267;51.156;17.044;2023-11-22T06:57:51;101374.07;;;3.96;39.42
70690;BME280;58267;51.156;17.044;2023-11-22T07:00:17;101383.67;;;4.10;38.82
70690;BME280;58267;51.156;17.044;2023-11-22T07:02:42;101390.67;;;3.90;39.20
70690;BME280;58267;51.156;17.044;2023-11-22T07:05:08;101389.54;;;3.79;39.04
70690;BME280;58267;51.156;17.044;2023-11-22T07:07:33;101391.78;;;3.89;39.02
70690;BME280;58267;51.156;17.044;2023-11-22T07:09:58;101387.46;;;3.71;39.02
70690;BME280;58267;51.156;17.044;2023-11-22T07:12:24;101384.90;;;3.70;38.54
70690;BME280;58267;51.156;17.044;2023-11-22T07:14:49;101388.76;;;3.98;38.39
70690;BME280;58267;51.156;17.044;2023-11-22T07:17:15;101388.56;;;4.11;38.39
70690;BME280;58267;51.156;17.044;2023-11-22T07:19:40;101387.61;;;3.67;39.06
70690;BME280;58267;51.156;17.044;2023-11-22T07:22:06;101395.96;;;3.32;38.57
70690;BME280;58267;51.156;17.044;2023-11-22T07:24:31;101400.28;;;2.34;40.13
70690;BME280;58267;51.156;17.044;2023-11-22T07:26:57;101395.76;;;2.67;40.47
70690;BME280;58267;51.156;17.044;2023-11-22T07:29:22;101396.74;;;2.75;40.26
70690;BME280;58267;51.156;17.044;2023-11-22T07:31:47;101387.18;;;3.36;39.52
70690;BME280;58267;51.156;17.044;2023-11-22T07:34:13;101383.54;;;3.63;38.93
70690;BME280;58267;51.156;17.044;2023-11-22T07:36:39;101390.79;;;3.67;38.38
70690;BME280;58267;51.156;17.044;2023-11-22T07:39:04;101391.23;;;3.85;38.54
70690;BME280;58267;51.156;17.044;2023-11-22T07:41:30;101389.64;;;3.90;39.37
70690;BME280;58267;51.156;17.044;2023-11-22T07:43:56;101397.50;;;3.68;38.15
70690;BME280;58267;51.156;17.044;2023-11-22T07:46:21;101403.52;;;3.87;38.70
70690;BME280;58267;51.156;17.044;2023-11-22T07:48:46;101410.51;;;4.41;38.15
70690;BME280;58267;51.156;17.044;2023-11-22T07:51:13;101413.69;;;3.58;39.53
70690;BME280;58267;51.156;17.044;2023-11-22T07:53:42;101419.06;;;3.51;40.17
70690;BME280;58267;51.156;17.044;2023-11-22T07:56:04;101430.42;;;1.77;42.68
70690;BME280;58267;51.156;17.044;2023-11-22T07:58:29;101432.55;;;2.24;42.46
70690;BME280;58267;51.156;17.044;2023-11-22T08:00:54;101435.39;;;2.60;41.88
70690;BME280;58267;51.156;17.044;2023-11-22T08:03:20;101446.98;;;2.49;42.38
70690;BME280;58267;51.156;17.044;2023-11-22T08:05:45;101457.49;;;1.68;43.70
70690;BME280;58267;51.156;17.044;2023-11-22T08:08:14;101472.77;;;0.27;45.75
70690;BME280;58267;51.156;17.044;2023-11-22T08:10:39;101476.87;;;0.46;46.43
70690;BME280;58267;51.156;17.044;2023-11-22T08:13:04;101475.10;;;1.01;45.16
70690;BME280;58267;51.156;17.044;2023-11-22T08:15:30;101469.70;;;1.52;44.63
70690;BME280;58267;51.156;17.044;2023-11-22T08:17:55;101479.50;;;2.29;43.54
70690;BME280;58267;51.156;17.044;2023-11-22T08:20:20;101486.59;;;4.55;74.30
70690;BME280;58267;51.156;17.044;2023-11-22T08:22:46;101483.17;;;6.57;58.30
70690;BME280;58267;51.156;17.044;2023-11-22T08:25:10;101479.96;;;8.06;64.66
70690;BME280;58267;51.156;17.044;2023-11-22T08:27:36;101479.13;;;10.49;55.33
70690;BME280;58267;51.156;17.044;2023-11-22T08:30:02;101483.78;;;4.65;37.66
70690;BME280;58267;51.156;17.044;2023-11-22T08:32:27;101479.91;;;3.70;39.92
70690;BME280;58267;51.156;17.044;2023-11-22T08:34:53;101476.74;;;3.93;39.82
70690;BME280;58267;51.156;17.044;2023-11-22T08:37:19;101476.47;;;2.58;41.03
70690;BME280;58267;51.156;17.044;2023-11-22T08:39:44;101466.75;;;3.38;40.08
70690;BME280;58267;51.156;17.044;2023-11-22T08:42:09;101458.79;;;3.96;39.79
70690;BME280;58267;51.156;17.044;2023-11-22T08:44:35;101451.17;;;4.03;39.61
70690;BME280;58267;51.156;17.044;2023-11-22T08:47:00;101443.62;;;3.60;39.88
70690;BME280;58267;51.156;17.044;2023-11-22T08:49:25;101440.15;;;3.13;40.64
70690;BME280;58267;51.156;17.044;2023-11-22T08:51:51;101441.35;;;3.57;40.63
70690;BME280;58267;51.156;17.044;2023-11-22T08:54:20;101446.91;;;3.71;40.26
70690;BME280;58267;51.156;17.044;2023-11-22T08:56:45;101450.29;;;3.55;39.73
70690;BME280;58267;51.156;17.044;2023-11-22T08:59:11;101448.73;;;3.52;39.99
70690;BME280;58267;51.156;17.044;2023-11-22T09:01:36;101462.65;;;3.46;39.68
70690;BME280;58267;51.156;17.044;2023-11-22T09:04:02;101480.94;;;1.02;43.10
70690;BME280;58267;51.156;17.044;2023-11-22T09:06:27;101478.76;;;1.12;44.15
70690;BME280;58267;51.156;17.044;2023-11-22T09:08:52;101467.82;;;1.95;42.55
70690;BME280;58267;51.156;17.044;2023-11-22T09:11:18;101463.34;;;2.10;41.70
70690;BME280;58267;51.156;17.044;2023-11-22T09:13:44;101456.98;;;2.17;41.40
70690;BME280;58267;51.156;17.044;2023-11-22T09:16:09;101448.50;;;1.44;43.80
70690;BME280;58267;51.156;17.044;2023-11-22T09:18:36;101460.54;;;2.06;42.80
70690;BME280;58267;51.156;17.044;2023-11-22T09:21:01;101464.47;;;2.84;41.97
70690;BME280;58267;51.156;17.044;2023-11-22T09:23:26;101459.74;;;3.22;40.99
70690;BME280;58267;51.156;17.044;2023-11-22T09:25:51;101457.74;;;3.76;40.29
70690;BME280;58267;51.156;17.044;2023-11-22T09:28:17;101457.41;;;2.63;40.00
70690;BME280;58267;51.156;17.044;2023-11-22T09:30:43;101464.21;;;1.52;42.38
70690;BME280;58267;51.156;17.044;2023-11-22T09:33:11;101458.00;;;2.32;41.71
70690;BME280;58267;51.156;17.044;2023-11-22T09:35:35;101448.96;;;2.21;41.81
70690;BME280;58267;51.156;17.044;2023-11-22T09:38:00;101448.53;;;3.05;41.20
70690;BME280;58267;51.156;17.044;2023-11-22T09:40:26;101440.98;;;2.97;40.69
70690;BME280;58267;51.156;17.044;2023-11-22T09:42:51;101428.60;;;3.47;39.85
70690;BME280;58267;51.156;17.044;2023-11-22T09:45:17;101434.43;;;3.59;39.14
70690;BME280;58267;51.156;17.044;2023-11-22T09:47:42;101435.79;;;3.49;38.76
70690;BME280;58267;51.156;17.044;2023-11-22T09:50:08;101435.33;;;3.70;38.25
70690;BME280;58267;51.156;17.044;2023-11-22T09:52:34;101438.30;;;3.91;38.26
70690;BME280;58267;51.156;17.044;2023-11-22T09:54:58;101450.45;;;4.25;38.37
70690;BME280;58267;51.156;17.044;2023-11-22T09:57:25;101458.62;;;4.28;38.03
70690;BME280;58267;51.156;17.044;2023-11-22T09:59:50;101457.93;;;4.27;39.01
70690;BME280;58267;51.156;17.044;2023-11-22T10:02:15;101457.48;;;4.21;38.64
70690;BME280;58267;51.156;17.044;2023-11-22T10:04:41;101458.04;;;4.15;38.26
70690;BME280;58267;51.156;17.044;2023-11-22T10:07:06;101458.85;;;3.57;38.31
70690;BME280;58267;51.156;17.044;2023-11-22T10:09:32;101463.03;;;3.06;39.41
70690;BME280;58267;51.156;17.044;2023-11-22T10:11:59;101467.75;;;2.12;40.39
70690;BME280;58267;51.156;17.044;2023-11-22T10:14:23;101464.23;;;2.75;39.95
70690;BME280;58267;51.156;17.044;2023-11-22T10:16:59;101464.23;;;2.30;40.21
70690;BME280;58267;51.156;17.044;2023-11-22T10:19:18;101470.19;;;2.56;40.65
70690;BME280;58267;51.156;17.044;2023-11-22T10:21:39;101466.07;;;2.19;40.98
70690;BME280;58267;51.156;17.044;2023-11-22T10:24:05;101471.44;;;1.61;41.87
70690;BME280;58267;51.156;17.044;2023-11-22T10:26:31;101473.36;;;1.85;41.21
70690;BME280;58267;51.156;17.044;2023-11-22T10:28:57;101470.70;;;2.73;40.34
70690;BME280;58267;51.156;17.044;2023-11-22T10:31:23;101474.84;;;1.91;40.24
70690;BME280;58267;51.156;17.044;2023-11-22T10:33:47;101481.60;;;2.14;40.22
70690;BME280;58267;51.156;17.044;2023-11-22T10:36:13;101478.04;;;2.93;39.18
70690;BME280;58267;51.156;17.044;2023-11-22T10:38:38;101480.00;;;3.13;38.82
70690;BME280;58267;51.156;17.044;2023-11-22T10:41:04;101492.28;;;2.86;38.56
70690;BME280;58267;51.156;17.044;2023-11-22T10:43:30;101501.63;;;3.49;37.93
70690;BME280;58267;51.156;17.044;2023-11-22T10:45:55;101509.54;;;3.46;38.14
70690;BME280;58267;51.156;17.044;2023-11-22T10:48:19;101518.17;;;2.60;39.51
70690;BME280;58267;51.156;17.044;2023-11-22T10:50:45;101523.54;;;2.86;38.81
70690;BME280;58267;51.156;17.044;2023-11-22T10:53:12;101529.08;;;3.23;38.70
70690;BME280;58267;51.156;17.044;2023-11-22T10:55:38;101533.12;;;3.30;38.86
70690;BME280;58267;51.156;17.044;2023-11-22T10:58:02;101537.22;;;3.50;38.23
70690;BME280;58267;51.156;17.044;2023-11-22T11:00:27;101538.74;;;3.72;38.21
70690;BME280;58267;51.156;17.044;2023-11-22T11:02:57;101541.83;;;2.97;38.84
70690;BME280;58267;51.156;17.044;2023-11-22T11:05:20;101539.27;;;2.64;39.52
70690;BME280;58267;51.156;17.044;2023-11-22T11:07:48;101529.15;;;2.09;39.62
70690;BME280;58267;51.156;17.044;2023-11-22T11:10:09;101522.33;;;2.43;39.82
70690;BME280;58267;51.156;17.044;2023-11-22T11:12:35;101513.60;;;3.22;39.33
70690;BME280;58267;51.156;17.044;2023-11-22T11:15:03;101513.67;;;2.36;39.43
70690;BME280;58267;51.156;17.044;2023-11-22T11:17:28;101522.48;;;2.96;39.06
70690;BME280;58267;51.156;17.044;2023-11-22T11:19:53;101519.27;;;3.13;38.93
70690;BME280;58267;51.156;17.044;2023-11-22T11:22:21;101507.82;;;2.85;38.65
70690;BME280;58267;51.156;17.044;2023-11-22T11:24:47;101503.66;;;3.03;38.50
70690;BME280;58267;51.156;17.044;2023-11-22T11:27:11;101504.83;;;3.38;38.38
70690;BME280;58267;51.156;17.044;2023-11-22T11:29:37;101499.34;;;3.31;37.97
70690;BME280;58267;51.156;17.044;2023-11-22T11:32:03;101496.13;;;3.44;37.95
70690;BME280;58267;51.156;17.044;2023-11-22T11:34:27;101499.59;;;2.81;38.44
70690;BME280;58267;51.156;17.044;2023-11-22T11:36:53;101508.48;;;2.90;38.75
70690;BME280;58267;51.156;17.044;2023-11-22T11:39:25;101510.35;;;2.75;39.57
70690;BME280;58267;51.156;17.044;2023-11-22T11:41:45;101503.70;;;3.32;39.02
70690;BME280;58267;51.156;17.044;2023-11-22T11:44:11;101499.16;;;2.82;38.90
70690;BME280;58267;51.156;17.044;2023-11-22T11:46:38;101504.96;;;2.53;38.80
70690;BME280;58267;51.156;17.044;2023-11-22T11:49:06;101512.75;;;2.58;39.46
70690;BME280;58267;51.156;17.044;2023-11-22T11:51:28;101520.04;;;2.48;40.15
70690;BME280;58267;51.156;17.044;2023-11-22T11:53:54;101526.50;;;3.36;39.08
70690;BME280;58267;51.156;17.044;2023-11-22T11:56:19;101534.16;;;2.92;39.15
70690;BME280;58267;51.156;17.044;2023-11-22T11:58:45;101538.08;;;2.35;39.73
70690;BME280;58267;51.156;17.044;2023-11-22T12:01:12;101536.57;;;1.74;39.66
70690;BME280;58267;51.156;17.044;2023-11-22T12:03:37;101533.67;;;2.55;39.31
70690;BME280;58267;51.156;17.044;2023-11-22T12:06:01;101535.74;;;2.44;38.76
70690;BME280;58267;51.156;17.044;2023-11-22T12:08:26;101535.47;;;2.56;38.89
70690;BME280;58267;51.156;17.044;2023-11-22T12:10:56;101537.21;;;2.18;39.76
70690;BME280;58267;51.156;17.044;2023-11-22T12:13:18;101549.76;;;2.35;39.58
70690;BME280;58267;51.156;17.044;2023-11-22T12:15:42;101550.21;;;2.16;39.70
70690;BME280;58267;51.156;17.044;2023-11-22T12:18:08;101538.25;;;2.35;38.86
70690;BME280;58267;51.156;17.044;2023-11-22T12:20:33;101534.25;;;2.28;39.27
70690;BME280;58267;51.156;17.044;2023-11-22T12:22:59;101538.08;;;3.12;38.21
70690;BME280;58267;51.156;17.044;2023-11-22T12:25:26;101539.79;;;3.11;38.08
70690;BME280;58267;51.156;17.044;2023-11-22T12:27:49;101535.62;;;3.32;37.26
70690;BME280;58267;51.156;17.044;2023-11-22T12:32:41;101536.58;;;3.63;36.23
70690;BME280;58267;51.156;17.044;2023-11-22T12:35:07;101532.57;;;3.47;36.26
70690;BME280;58267;51.156;17.044;2023-11-22T12:37:31;101533.13;;;3.63;36.35
70690;BME280;58267;51.156;17.044;2023-11-22T12:39:57;101530.75;;;4.33;36.76
70690;BME280;58267;51.156;17.044;2023-11-22T12:42:23;101531.16;;;4.00;36.13
70690;BME280;58267;51.156;17.044;2023-11-22T12:44:48;101525.56;;;4.03;35.86
70690;BME280;58267;51.156;17.044;2023-11-22T12:47:14;101529.70;;;4.11;35.91